Time;durP1;ratioP1;P1;durP2;ratioP2;P2;SDS_P1;SDS_P2;PMS_P1;PMS_P2;Temp;Humidity;BMP_temperature;BMP_pressure;BME280_temperature;BME280_humidity;BME280_pressure;Samples;Min_cycle;Max_cycle;Signal;HPM_P1;HPM_P2
2022/11/14 00:00:40;;;;;;;0.10;0.10;;;;;;;9.63;56.46;98011.59;8417191;28;20530;-73
2022/11/14 00:04:45;;;;;;;0.10;0.10;;;;;;;9.53;57.06;98009.38;8417158;28;20538;-73
2022/11/14 00:08:48;;;;;;;0.10;0.10;;;;;;;9.62;56.46;98009.94;8416561;28;20231;-73
2022/11/14 00:12:52;;;;;;;0.10;0.10;;;;;;;9.59;56.30;98006.59;8416728;28;20530;-73
2022/11/14 00:16:54;;;;;;;0.10;0.10;;;;;;;9.52;56.59;98005.13;8416231;28;20276;-73
2022/11/14 00:20:57;;;;;;;0.10;0.10;;;;;;;9.50;55.90;98003.50;8416187;28;20237;-73
2022/11/14 00:25:00;;;;;;;0.10;0.10;;;;;;;9.51;55.78;98002.59;8416397;28;20242;-73
2022/11/14 00:29:04;;;;;;;0.10;0.10;;;;;;;9.37;55.61;98005.72;8416106;28;20239;-73
2022/11/14 00:33:07;;;;;;;0.10;0.10;;;;;;;9.39;55.22;97999.59;8416140;28;20230;-72
2022/11/14 00:37:10;;;;;;;0.10;0.10;;;;;;;9.30;55.19;97994.78;8415826;28;20231;-72
2022/11/14 00:41:12;;;;;;;0.10;0.10;;;;;;;9.21;55.63;97989.97;8415707;28;20524;-72
2022/11/14 00:45:16;;;;;;;0.10;0.10;;;;;;;9.14;55.24;97986.78;8415738;28;20233;-72
2022/11/14 00:49:19;;;;;;;0.10;0.10;;;;;;;9.02;55.35;97988.97;8415458;28;20222;-73
2022/11/14 00:53:22;;;;;;;0.10;0.10;;;;;;;9.00;55.38;97976.13;8415175;28;20285;-73
2022/11/14 00:57:25;;;;;;;0.10;0.10;;;;;;;8.99;55.06;97975.28;8414480;28;20281;-74
2022/11/14 01:01:29;;;;;;;0.10;0.10;;;;;;;8.90;55.06;97974.78;8415097;28;20234;-73
2022/11/14 01:05:32;;;;;;;0.10;0.10;;;;;;;8.85;55.61;97964.63;8414835;28;20483;-73
2022/11/14 01:09:35;;;;;;;0.10;0.10;;;;;;;8.89;55.41;97970.50;8413765;28;20514;-73
2022/11/14 01:13:37;;;;;;;0.10;0.10;;;;;;;8.99;56.38;97970.13;8413363;28;20300;-74
2022/11/14 01:17:42;;;;;;;0.10;0.10;;;;;;;9.05;56.28;97961.28;8413367;28;20397;-73
2022/11/14 01:21:45;;;;;;;0.10;0.10;;;;;;;9.11;56.46;97957.63;8412938;28;20329;-73
2022/11/14 01:25:47;;;;;;;0.10;0.10;;;;;;;9.06;56.82;97957.78;8413122;28;20230;-73
2022/11/14 01:29:50;;;;;;;0.10;0.10;;;;;;;9.17;56.52;97960.81;8412966;28;20231;-73
2022/11/14 01:33:54;;;;;;;0.20;0.20;;;;;;;9.15;56.26;97954.03;8412438;28;20510;-74
2022/11/14 01:37:57;;;;;;;0.17;0.17;;;;;;;9.05;55.53;97944.97;8412848;28;20234;-73
2022/11/14 01:42:00;;;;;;;0.10;0.10;;;;;;;8.91;55.48;97941.16;8412930;28;20238;-73
2022/11/14 01:46:05;;;;;;;0.10;0.10;;;;;;;8.81;55.13;97932.06;8412485;28;20227;-73
2022/11/14 01:50:10;;;;;;;0.10;0.10;;;;;;;8.85;55.13;97932.78;8412591;28;20295;-73
2022/11/14 01:54:16;;;;;;;0.10;0.10;;;;;;;8.81;55.11;97934.66;8412703;28;20225;-73
2022/11/14 01:58:19;;;;;;;0.10;0.10;;;;;;;8.77;55.12;97933.09;8412748;28;20227;-72
2022/11/14 02:02:24;;;;;;;0.10;0.10;;;;;;;8.73;55.15;97918.63;8412397;28;20227;-73
2022/11/14 02:06:30;;;;;;;0.10;0.10;;;;;;;8.74;55.32;97922.91;8411946;28;20235;-73
2022/11/14 02:10:32;;;;;;;0.10;0.10;;;;;;;8.63;55.51;97920.69;8412024;28;20238;-73
2022/11/14 02:14:36;;;;;;;0.10;0.10;;;;;;;8.63;55.54;97910.38;8412044;28;20235;-73
2022/11/14 02:18:39;;;;;;;0.10;0.10;;;;;;;8.67;54.92;97917.09;8412261;28;20234;-73
2022/11/14 02:22:43;;;;;;;0.10;0.10;;;;;;;8.58;55.56;97915.69;8411957;28;20234;-73
2022/11/14 02:26:46;;;;;;;0.10;0.10;;;;;;;8.54;55.35;97924.44;8412075;28;20235;-73
2022/11/14 02:30:49;;;;;;;0.10;0.10;;;;;;;8.36;55.73;97912.22;8412206;28;20254;-73
2022/11/14 02:34:51;;;;;;;0.20;0.20;;;;;;;8.45;56.56;97908.47;8412099;28;20238;-73
2022/11/14 02:38:56;;;;;;;0.10;0.10;;;;;;;8.52;56.86;97902.19;8403864;28;20292;-73
2022/11/14 02:42:59;;;;;;;0.10;0.10;;;;;;;8.59;56.76;97898.50;8412006;28;20280;-73
2022/11/14 02:47:02;;;;;;;0.10;0.10;;;;;;;8.60;56.66;97897.56;8411783;28;20260;-73
2022/11/14 02:51:05;;;;;;;0.10;0.10;;;;;;;8.57;57.19;97888.22;8412132;28;20326;-73
2022/11/14 02:55:10;;;;;;;0.20;0.20;;;;;;;8.67;56.87;97888.69;8412231;28;20243;-73
2022/11/14 02:59:12;;;;;;;0.10;0.10;;;;;;;8.58;56.65;97891.63;8411550;28;20258;-73
2022/11/14 03:03:15;;;;;;;0.10;0.10;;;;;;;8.51;55.99;97877.25;8411545;28;20237;-73
2022/11/14 03:07:18;;;;;;;0.10;0.10;;;;;;;8.54;57.02;97888.31;8411792;28;20242;-73
2022/11/14 03:11:23;;;;;;;0.10;0.10;;;;;;;8.66;57.84;97901.66;8411245;28;20410;-73
2022/11/14 03:15:25;;;;;;;0.10;0.10;;;;;;;8.64;58.21;97912.03;8411094;28;20457;-73
2022/11/14 03:19:28;;;;;;;0.10;0.10;;;;;;;8.62;57.70;97911.25;8414541;28;20231;-73
2022/11/14 03:23:31;;;;;;;0.10;0.10;;;;;;;8.60;57.90;97902.72;8417198;28;20250;-73
2022/11/14 03:27:35;;;;;;;0.10;0.10;;;;;;;8.63;57.67;97905.22;8417110;28;20296;-73
2022/11/14 03:31:38;;;;;;;0.10;0.10;;;;;;;8.65;58.05;97900.00;8416776;28;20265;-73
2022/11/14 03:35:42;;;;;;;0.10;0.10;;;;;;;8.69;55.94;97899.81;8416718;28;20251;-73
2022/11/14 03:39:45;;;;;;;0.10;0.10;;;;;;;8.52;55.20;97891.88;8416569;28;20257;-73
2022/11/14 03:43:49;;;;;;;0.10;0.10;;;;;;;8.23;55.46;97886.00;8416469;28;20235;-73
2022/11/14 03:47:54;;;;;;;0.10;0.10;;;;;;;7.98;56.58;97871.41;8416321;28;20234;-72
2022/11/14 03:51:57;;;;;;;0.10;0.10;;;;;;;8.23;56.62;97875.69;8416020;28;20414;-73
2022/11/14 03:56:00;;;;;;;0.10;0.10;;;;;;;8.30;57.60;97873.69;8416242;28;20238;-73
2022/11/14 04:00:05;;;;;;;0.10;0.10;;;;;;;8.32;57.39;97875.34;8415933;28;20226;-73
2022/11/14 04:04:08;;;;;;;0.10;0.10;;;;;;;8.28;57.83;97890.97;8415688;28;20522;-73
2022/11/14 04:08:11;;;;;;;0.10;0.10;;;;;;;8.34;57.92;97904.53;8415641;28;20231;-73
2022/11/14 04:12:13;;;;;;;0.10;0.10;;;;;;;8.43;56.03;97902.53;8415707;28;20235;-73
2022/11/14 04:16:20;;;;;;;0.10;0.10;;;;;;;8.41;55.84;97893.13;8415549;28;20223;-73
2022/11/14 04:20:23;;;;;;;0.20;0.20;;;;;;;8.27;56.03;97889.31;8415299;28;20223;-73
2022/11/14 04:24:26;;;;;;;0.10;0.10;;;;;;;8.17;56.85;97881.91;8415065;28;20538;-73
2022/11/14 04:28:29;;;;;;;0.10;0.10;;;;;;;8.09;57.38;97873.59;8414919;28;20276;-73
2022/11/14 04:32:33;;;;;;;0.10;0.10;;;;;;;7.97;58.37;97877.44;8414525;28;20230;-73
2022/11/14 04:36:36;;;;;;;0.10;0.10;;;;;;;8.21;57.45;97882.63;8414855;28;20250;-73
2022/11/14 04:40:39;;;;;;;0.10;0.10;;;;;;;8.32;57.06;97875.34;8414564;28;20340;-73
2022/11/14 04:44:41;;;;;;;0.10;0.10;;;;;;;8.38;56.70;97874.28;8414426;28;20341;-73
2022/11/14 04:48:46;;;;;;;0.10;0.10;;;;;;;8.41;56.07;97871.56;8414297;28;20545;-73
2022/11/14 04:52:51;;;;;;;0.10;0.10;;;;;;;8.47;55.96;97875.69;8414256;28;20235;-73
2022/11/14 04:56:54;;;;;;;0.10;0.10;;;;;;;8.36;56.64;97882.06;8413774;28;20234;-73
2022/11/14 05:00:57;;;;;;;0.10;0.10;;;;;;;8.44;55.78;97886.97;8413977;28;20280;-73
2022/11/14 05:05:01;;;;;;;0.10;0.10;;;;;;;8.26;55.82;97885.88;8413732;28;20307;-73
2022/11/14 05:09:04;;;;;;;0.10;0.10;;;;;;;8.22;56.44;97881.72;8413808;28;20242;-72
2022/11/14 05:13:07;;;;;;;0.20;0.20;;;;;;;8.12;56.12;97877.81;8413603;28;20276;-73
2022/11/14 05:17:10;;;;;;;0.10;0.10;;;;;;;8.15;55.89;97878.53;8413501;28;20608;-73
2022/11/14 05:21:15;;;;;;;0.10;0.10;;;;;;;7.97;56.26;97880.03;8413963;28;20530;-73
2022/11/14 05:25:18;;;;;;;0.10;0.10;;;;;;;7.96;56.46;97880.09;8413815;28;20226;-73
2022/11/14 05:29:20;;;;;;;0.10;0.10;;;;;;;7.96;55.83;97890.41;8413481;28;20534;-72
2022/11/14 05:33:23;;;;;;;0.10;0.10;;;;;;;7.77;56.82;97895.38;8412590;28;20431;-73
2022/11/14 05:37:28;;;;;;;0.10;0.10;;;;;;;7.81;56.77;97895.19;8411767;28;20230;-73
2022/11/14 05:41:31;;;;;;;0.10;0.10;;;;;;;7.73;56.92;97901.47;8412453;28;20233;-73
2022/11/14 05:45:33;;;;;;;0.10;0.10;;;;;;;7.46;59.00;97901.50;8412196;28;20242;-71
2022/11/14 05:49:36;;;;;;;0.10;0.10;;;;;;;7.52;59.07;97900.47;8412717;28;20507;-71
2022/11/14 05:53:40;;;;;;;0.10;0.10;;;;;;;7.62;58.79;97900.13;8412435;28;20235;-72
2022/11/14 05:57:43;;;;;;;0.10;0.10;;;;;;;7.66;59.54;97906.03;8412650;28;20227;-72
2022/11/14 06:01:46;;;;;;;0.10;0.10;;;;;;;7.72;59.54;97918.69;8412319;28;20242;-72
2022/11/14 06:05:50;;;;;;;0.10;0.10;;;;;;;7.64;59.58;97929.25;8413346;28;20238;-71
2022/11/14 06:09:54;;;;;;;0.10;0.10;;;;;;;7.44;61.22;97934.22;8412721;28;20546;-72
2022/11/14 06:13:58;;;;;;;0.10;0.10;;;;;;;6.82;63.84;97925.00;8412671;28;20534;-72
2022/11/14 06:18:01;;;;;;;0.10;0.10;;;;;;;7.60;60.81;97919.94;8412860;28;20423;-72
2022/11/14 06:22:04;;;;;;;0.10;0.10;;;;;;;7.88;60.21;97915.59;8412602;28;20328;-72
2022/11/14 06:26:12;;;;;;;0.10;0.10;;;;;;;8.02;59.61;97924.56;8411972;28;20552;-72
2022/11/14 06:30:15;;;;;;;0.10;0.10;;;;;;;7.97;59.76;97928.19;8412021;28;20229;-72
2022/11/14 06:34:18;;;;;;;0.10;0.10;;;;;;;7.99;59.68;97927.22;8412460;28;20226;-72
2022/11/14 06:38:21;;;;;;;0.10;0.10;;;;;;;7.91;60.11;97934.38;8412939;28;20239;-72
2022/11/14 06:42:25;;;;;;;0.10;0.10;;;;;;;7.71;60.31;97926.47;8411789;28;20284;-72
2022/11/14 06:46:28;;;;;;;0.20;0.20;;;;;;;7.94;59.32;97938.59;8411924;28;20230;-72
2022/11/14 06:50:30;;;;;;;0.10;0.10;;;;;;;7.79;59.10;97952.88;8412114;28;20254;-72
2022/11/14 06:54:33;;;;;;;0.10;0.10;;;;;;;7.78;59.35;97948.59;8416295;28;20261;-73
2022/11/14 06:58:40;;;;;;;0.10;0.10;;;;;;;7.51;59.38;97948.59;8418107;28;20575;-72
2022/11/14 07:02:45;;;;;;;0.10;0.10;;;;;;;7.43;59.93;97935.13;8418061;28;20514;-72
2022/11/14 07:06:48;;;;;;;0.10;0.10;;;;;;;7.02;61.02;97950.13;8418057;28;20234;-72
2022/11/14 07:10:51;;;;;;;0.10;0.10;;;;;;;7.21;60.94;97945.25;8418951;28;20246;-72
2022/11/14 07:14:55;;;;;;;0.10;0.10;;;;;;;6.49;63.52;97929.38;8418184;28;20226;-73
2022/11/14 07:18:59;;;;;;;0.10;0.10;;;;;;;6.74;63.18;97957.81;8418517;28;20234;-72
2022/11/14 07:23:01;;;;;;;0.10;0.10;;;;;;;6.72;64.30;97945.03;8417918;28;20549;-72
2022/11/14 07:27:09;;;;;;;0.10;0.10;;;;;;;6.87;63.46;97933.41;8418177;28;20235;-73
2022/11/14 07:31:15;;;;;;;0.20;0.20;;;;;;;6.67;64.49;97941.72;8418300;28;20256;-72
2022/11/14 07:35:18;;;;;;;0.20;0.20;;;;;;;6.96;64.14;97955.47;8417942;28;20245;-72
2022/11/14 07:39:21;;;;;;;0.10;0.10;;;;;;;6.22;67.05;97978.13;8418116;28;20230;-72
2022/11/14 07:43:24;;;;;;;0.10;0.10;;;;;;;6.41;66.65;97989.59;8417478;28;20230;-72
2022/11/14 07:47:28;;;;;;;0.10;0.10;;;;;;;7.28;63.99;97976.84;8417668;28;20276;-72
2022/11/14 07:51:31;;;;;;;0.20;0.20;;;;;;;7.42;63.87;97977.22;8417636;28;20300;-72
2022/11/14 07:55:35;;;;;;;0.10;0.10;;;;;;;8.14;61.56;97986.94;8417666;28;20239;-73
2022/11/14 07:59:38;;;;;;;0.20;0.20;;;;;;;8.63;60.00;97962.00;8417617;28;20234;-73
2022/11/14 08:03:43;;;;;;;0.10;0.10;;;;;;;9.96;57.58;97936.97;8416452;28;20234;-72
2022/11/14 08:07:50;;;;;;;0.10;0.10;;;;;;;10.85;54.07;97943.47;8416949;28;20235;-72
2022/11/14 08:11:53;;;;;;;0.10;0.10;;;;;;;10.73;55.06;97942.25;8416328;28;20280;-73
2022/11/14 08:15:56;;;;;;;0.10;0.10;;;;;;;11.57;52.81;97939.19;8416797;28;20241;-73
2022/11/14 08:20:00;;;;;;;0.10;0.10;;;;;;;11.28;53.07;97944.03;8416564;28;20514;-73
2022/11/14 08:24:03;;;;;;;0.10;0.10;;;;;;;11.46;51.98;97924.19;8416103;28;20562;-72
2022/11/14 08:28:06;;;;;;;0.10;0.10;;;;;;;11.96;50.93;97933.00;8413289;28;20230;-73
2022/11/14 08:32:10;;;;;;;0.10;0.10;;;;;;;11.37;52.77;97931.56;8412892;28;20238;-73
2022/11/14 08:36:14;;;;;;;0.10;0.10;;;;;;;11.79;51.87;97930.38;8412705;28;20242;-71
2022/11/14 08:40:17;;;;;;;0.10;0.10;;;;;;;12.61;49.72;97924.47;8412390;28;20226;-70
2022/11/14 08:44:20;;;;;;;0.10;0.10;;;;;;;12.09;50.90;97930.63;8412142;28;20230;-71
2022/11/14 08:48:22;;;;;;;0.10;0.10;;;;;;;13.06;48.97;97930.66;8412541;28;20238;-71
2022/11/14 08:52:27;;;;;;;0.10;0.10;;;;;;;13.53;47.80;97939.38;8412300;28;20227;-71
2022/11/14 08:56:30;;;;;;;0.10;0.10;;;;;;;11.71;50.94;97934.19;8412167;28;20238;-71
2022/11/14 09:00:32;;;;;;;0.10;0.10;;;;;;;12.22;50.35;97925.63;8411922;28;20420;-70
2022/11/14 09:04:35;;;;;;;0.10;0.10;;;;;;;12.17;52.02;97930.22;8412049;28;20231;-72
2022/11/14 09:08:40;;;;;;;0.10;0.10;;;;;;;13.34;48.43;97909.22;8412161;28;20290;-71
2022/11/14 09:12:43;;;;;;;0.10;0.10;;;;;;;12.79;49.38;97923.44;8412030;28;20235;-71
2022/11/14 09:16:47;;;;;;;0.10;0.10;;;;;;;12.47;50.97;97927.75;8410988;28;20231;-71
2022/11/14 09:20:50;;;;;;;0.10;0.10;;;;;;;12.25;51.35;97939.28;8411530;28;20235;-70
2022/11/14 09:24:55;;;;;;;0.10;0.10;;;;;;;13.03;49.56;97929.09;8410622;28;20234;-72
2022/11/14 09:28:58;;;;;;;0.10;0.10;;;;;;;12.62;50.09;97929.59;8410927;28;20230;-71
2022/11/14 09:33:01;;;;;;;0.10;0.10;;;;;;;13.83;47.97;97931.59;8411778;28;20441;-72
2022/11/14 09:37:12;;;;;;;0.10;0.10;;;;;;;12.98;49.33;97931.09;8413227;28;20570;-72
2022/11/14 09:41:24;;;;;;;0.10;0.10;;;;;;;12.86;49.44;97942.16;8413128;28;20227;-72
2022/11/14 09:45:28;;;;;;;0.10;0.10;;;;;;;13.61;49.45;97940.63;8412741;28;20242;-71
2022/11/14 09:49:36;;;;;;;0.10;0.10;;;;;;;14.54;48.25;97953.44;8412673;28;20219;-71
2022/11/14 09:53:46;;;;;;;0.10;0.10;;;;;;;13.94;50.68;97957.00;8414257;28;20234;-71
2022/11/14 09:57:51;;;;;;;0.10;0.10;;;;;;;14.57;47.67;97953.31;8412706;28;20421;-72
2022/11/14 10:01:58;;;;;;;0.10;0.10;;;;;;;14.88;46.12;97957.44;8411957;28;20226;-73
2022/11/14 10:06:17;;;;;;;0.10;0.10;;;;;;;15.12;44.93;97957.69;8411596;28;20459;-72
2022/11/14 10:10:29;;;;;;;0.10;0.10;;;;;;;15.09;45.44;97946.63;8411886;28;20222;-72
2022/11/14 10:14:55;;;;;;;0.00;0.00;;;;;;;15.45;44.92;97943.44;8412185;28;20298;-72
2022/11/14 10:19:09;;;;;;;0.10;0.10;;;;;;;15.23;44.92;97955.25;8411686;28;20226;-73
2022/11/14 10:23:25;;;;;;;0.10;0.10;;;;;;;15.34;45.44;97948.50;8411957;28;20243;-72
2022/11/14 10:27:31;;;;;;;0.03;0.03;;;;;;;14.89;45.62;97935.69;8414154;28;20340;-71
2022/11/14 10:31:44;;;;;;;0.00;0.00;;;;;;;15.45;44.87;97940.81;8419392;28;20237;-71
2022/11/14 10:35:51;;;;;;;0.10;0.10;;;;;;;15.05;45.14;97946.81;8418926;28;20434;-71
2022/11/14 10:39:56;;;;;;;0.00;0.00;;;;;;;14.54;47.16;97951.66;8418746;28;20301;-73
2022/11/14 10:43:59;;;;;;;0.00;0.00;;;;;;;14.67;46.98;97959.63;8418863;28;20230;-72
2022/11/14 10:48:10;;;;;;;0.00;0.00;;;;;;;14.54;46.36;97964.69;8418931;28;20242;-72
2022/11/14 10:52:14;;;;;;;0.00;0.00;;;;;;;14.93;46.91;97971.06;8418971;28;20223;-73
2022/11/14 10:56:17;;;;;;;0.00;0.00;;;;;;;14.76;47.11;97973.88;8418640;28;20226;-71
2022/11/14 11:00:21;;;;;;;0.00;0.00;;;;;;;14.60;47.40;97972.19;8417449;28;20293;-72
2022/11/14 11:04:28;;;;;;;0.10;0.10;;;;;;;14.13;47.66;97978.44;8418554;28;20227;-73
2022/11/14 11:12:53;;;;;;;0.10;0.10;;;;;;;14.11;48.89;97959.47;8418004;28;20226;-74
2022/11/14 11:17:29;;;;;;;0.00;0.00;;;;;;;14.35;47.97;97962.34;8417987;28;20279;-72
2022/11/14 11:21:50;;;;;;;0.00;0.00;;;;;;;14.58;47.51;97965.38;8315432;28;20240;-72
2022/11/14 11:25:59;;;;;;;0.10;0.10;;;;;;;14.47;47.44;97955.59;8314701;28;20233;-73
2022/11/14 11:30:07;;;;;;;0.00;0.00;;;;;;;14.28;48.35;97959.28;8314973;28;20240;-73
2022/11/14 11:34:10;;;;;;;0.00;0.00;;;;;;;14.66;47.84;97947.53;8415576;28;20234;-74
2022/11/14 11:38:15;;;;;;;0.03;0.03;;;;;;;14.00;48.36;97947.06;8416338;28;20238;-74
2022/11/14 11:42:21;;;;;;;0.07;0.07;;;;;;;14.57;48.29;97951.53;8417173;28;20522;-72
2022/11/14 11:46:28;;;;;;;0.10;0.10;;;;;;;14.62;47.76;97941.66;8417185;28;20524;-73
2022/11/14 11:50:31;;;;;;;0.10;0.10;;;;;;;14.63;47.88;97940.72;8417156;28;20222;-73
2022/11/14 11:54:47;;;;;;;0.00;0.00;;;;;;;14.28;49.08;97937.63;8416956;28;20239;-72
2022/11/14 11:58:57;;;;;;;0.10;0.10;;;;;;;14.55;48.35;97932.50;8416373;28;20231;-74
2022/11/14 12:03:00;;;;;;;0.10;0.10;;;;;;;14.52;48.46;97927.47;8416148;28;20230;-73
2022/11/14 12:07:08;;;;;;;0.10;0.10;;;;;;;14.39;49.18;97931.75;8416391;28;20289;-73
2022/11/14 12:11:17;;;;;;;0.10;0.10;;;;;;;14.35;49.16;97943.28;8416010;28;20554;-73
2022/11/14 12:15:26;;;;;;;0.10;0.10;;;;;;;14.60;48.55;97933.09;8416247;28;20297;-73
2022/11/14 12:19:46;;;;;;;0.10;0.10;;;;;;;14.41;48.99;97932.50;8415967;28;20231;-73
2022/11/14 12:24:08;;;;;;;0.10;0.10;;;;;;;14.70;49.14;97932.50;8415995;28;20230;-73
2022/11/14 12:28:25;;;;;;;0.00;0.00;;;;;;;14.76;48.72;97930.38;8415596;28;20253;-73
2022/11/14 12:32:31;;;;;;;0.00;0.00;;;;;;;14.62;49.05;97928.63;8416266;28;20230;-72
2022/11/14 12:36:35;;;;;;;0.10;0.10;;;;;;;14.74;49.47;97921.81;8416519;28;20234;-73
2022/11/14 12:40:40;;;;;;;0.00;0.00;;;;;;;15.02;48.56;97922.69;8416085;28;20218;-74
2022/11/14 12:44:45;;;;;;;0.00;0.00;;;;;;;15.33;48.41;97918.97;8415509;28;20250;-74
2022/11/14 12:48:48;;;;;;;0.03;0.03;;;;;;;15.38;48.02;97914.31;8415773;28;20234;-74
2022/11/14 12:52:52;;;;;;;0.00;0.00;;;;;;;15.34;48.64;97904.16;8414227;28;20538;-74
2022/11/14 12:56:59;;;;;;;0.03;0.03;;;;;;;15.44;47.96;97900.03;8414254;28;20258;-74
2022/11/14 13:01:12;;;;;;;0.03;0.03;;;;;;;15.50;48.53;97903.97;8414620;28;20238;-74
2022/11/14 13:05:39;;;;;;;0.00;0.00;;;;;;;15.43;48.80;97901.78;8414789;28;20254;-73
2022/11/14 13:09:58;;;;;;;0.00;0.00;;;;;;;15.45;49.29;97897.28;8414836;28;20425;-73
2022/11/14 13:22:46;;;;;;;0.00;0.00;;;;;;;16.07;46.78;97888.03;8413952;28;20230;-74
2022/11/14 13:26:51;;;;;;;0.00;0.00;;;;;;;16.09;47.15;97880.94;8414023;28;20250;-73
2022/11/14 13:31:07;;;;;;;0.00;0.00;;;;;;;16.40;46.60;97868.34;8413739;28;20295;-71
2022/11/14 13:35:14;;;;;;;0.03;0.03;;;;;;;15.74;47.75;97859.78;8413825;28;20242;-72
2022/11/14 13:39:23;;;;;;;0.00;0.00;;;;;;;16.19;46.27;97857.63;8413871;28;20219;-74
2022/11/14 13:43:33;;;;;;;0.10;0.10;;;;;;;16.47;46.73;97853.94;8413540;28;20287;-73
2022/11/14 13:48:19;;;;;;;0.00;0.00;;;;;;;16.38;46.53;97851.94;8413549;28;20234;-72
2022/11/14 13:52:24;;;;;;;0.00;0.00;;;;;;;16.65;45.85;97840.50;8413389;28;20218;-71
2022/11/14 13:56:34;;;;;;;0.00;0.00;;;;;;;15.79;46.69;97850.72;8417367;28;20589;-72
2022/11/14 14:00:54;;;;;;;0.00;0.00;;;;;;;15.54;47.46;97848.88;8413328;28;20436;-74
2022/11/14 14:05:04;;;;;;;0.00;0.00;;;;;;;15.20;55.22;97855.47;8412480;28;20360;-72
2022/11/14 14:09:15;;;;;;;0.00;0.00;;;;;;;15.28;51.09;97862.81;8412835;28;20250;-71
2022/11/14 14:13:29;;;;;;;0.10;0.10;;;;;;;15.44;52.83;97848.66;8412789;28;20428;-72
2022/11/14 14:17:38;;;;;;;0.00;0.00;;;;;;;15.87;47.71;97836.31;8412968;28;20320;-72
2022/11/14 14:21:45;;;;;;;0.00;0.00;;;;;;;16.09;47.61;97828.69;8413213;28;20541;-72
2022/11/14 14:25:55;;;;;;;0.00;0.00;;;;;;;15.76;48.20;97827.44;8412631;28;20234;-72
2022/11/14 14:30:04;;;;;;;0.00;0.00;;;;;;;15.37;49.05;97821.28;8412273;28;20403;-73
2022/11/14 14:34:21;;;;;;;0.00;0.00;;;;;;;15.25;49.40;97820.34;8412514;28;20237;-73
2022/11/14 14:38:25;;;;;;;0.00;0.00;;;;;;;15.09;49.92;97826.66;8412594;28;20222;-72
2022/11/14 14:42:36;;;;;;;0.10;0.10;;;;;;;14.84;50.79;97820.41;8412376;28;20268;-72
2022/11/14 14:46:39;;;;;;;0.00;0.00;;;;;;;14.69;51.53;97824.00;8412355;28;20333;-73
2022/11/14 14:50:50;;;;;;;0.00;0.00;;;;;;;14.60;51.35;97826.25;8412437;28;20237;-72
2022/11/14 14:54:56;;;;;;;0.00;0.00;;;;;;;14.55;51.52;97820.44;8411769;28;20234;-73
2022/11/14 14:59:15;;;;;;;0.00;0.00;;;;;;;14.26;51.88;97819.69;8412061;28;20301;-72
2022/11/14 15:03:18;;;;;;;0.00;0.00;;;;;;;14.31;52.00;97811.56;8411821;28;20427;-72
2022/11/14 15:07:24;;;;;;;0.00;0.00;;;;;;;14.22;52.10;97813.81;8411531;28;20241;-72
2022/11/14 15:11:27;;;;;;;0.10;0.10;;;;;;;14.33;51.93;97817.50;8412112;28;20242;-72
2022/11/14 15:15:36;;;;;;;0.00;0.00;;;;;;;14.35;51.94;97819.06;8415830;28;20234;-73
2022/11/14 15:19:41;;;;;;;0.10;0.10;;;;;;;14.21;51.90;97806.91;8418202;28;20522;-72
2022/11/14 15:23:44;;;;;;;0.10;0.10;;;;;;;13.97;52.72;97814.44;8417657;28;20572;-72
2022/11/14 15:27:48;;;;;;;0.00;0.00;;;;;;;14.10;52.63;97813.72;8417612;28;20425;-72
2022/11/14 15:31:55;;;;;;;0.10;0.10;;;;;;;13.87;52.75;97808.13;8418417;28;20227;-72
2022/11/14 15:36:09;;;;;;;0.00;0.00;;;;;;;13.51;53.99;97811.16;8417757;28;20284;-72
2022/11/14 15:40:17;;;;;;;0.03;0.03;;;;;;;13.58;53.73;97807.28;8417973;28;20257;-73
2022/11/14 15:44:31;;;;;;;0.00;0.00;;;;;;;13.43;54.04;97814.22;8418086;28;20281;-74
2022/11/14 15:48:40;;;;;;;0.00;0.00;;;;;;;13.29;54.32;97813.22;8416959;28;20235;-73
2022/11/14 15:52:48;;;;;;;0.10;0.10;;;;;;;13.21;54.59;97811.97;8417896;28;20526;-73
2022/11/14 15:56:51;;;;;;;0.10;0.10;;;;;;;13.32;54.64;97809.63;8417988;28;20229;-73
2022/11/14 16:00:54;;;;;;;0.10;0.10;;;;;;;12.83;56.26;97821.03;8416632;28;20226;-73
2022/11/14 16:04:59;;;;;;;0.03;0.03;;;;;;;12.92;55.41;97814.47;8417097;28;20518;-73
2022/11/14 16:09:02;;;;;;;0.00;0.00;;;;;;;13.00;55.37;97814.88;8417456;28;20233;-73
2022/11/14 16:13:06;;;;;;;0.10;0.10;;;;;;;13.09;55.19;97814.34;8416877;28;20311;-73
2022/11/14 16:17:13;;;;;;;0.07;0.07;;;;;;;13.10;55.42;97810.84;8416830;28;20234;-73
2022/11/14 16:21:18;;;;;;;0.00;0.00;;;;;;;13.05;55.50;97814.63;8417070;28;20226;-73
2022/11/14 16:25:23;;;;;;;0.03;0.03;;;;;;;13.14;55.17;97800.28;8416450;28;20249;-73
2022/11/14 16:29:26;;;;;;;0.10;0.10;;;;;;;12.91;56.36;97802.41;8416430;28;20398;-73
2022/11/14 16:33:28;;;;;;;0.00;0.00;;;;;;;12.93;56.53;97807.50;8416661;28;20227;-73
2022/11/14 16:37:33;;;;;;;0.10;0.10;;;;;;;13.19;55.52;97799.06;8416310;28;20522;-73
2022/11/14 16:41:36;;;;;;;0.10;0.10;;;;;;;13.16;55.62;97807.06;8416524;28;20241;-73
2022/11/14 16:45:39;;;;;;;0.10;0.10;;;;;;;13.08;55.73;97815.28;8415992;28;20258;-73
2022/11/14 16:49:42;;;;;;;0.10;0.10;;;;;;;13.10;55.69;97810.00;8415983;28;20238;-76
2022/11/14 16:53:47;;;;;;;0.10;0.10;;;;;;;13.08;55.82;97817.06;8415693;28;20230;-74
2022/11/14 16:57:49;;;;;;;0.10;0.10;;;;;;;13.11;55.54;97809.91;8415640;28;20234;-73
2022/11/14 17:01:52;;;;;;;0.07;0.07;;;;;;;13.16;55.59;97821.81;8414928;28;20231;-74
2022/11/14 17:05:55;;;;;;;0.10;0.10;;;;;;;13.15;55.30;97826.16;8415348;28;20226;-74
2022/11/14 17:10:00;;;;;;;0.10;0.10;;;;;;;12.96;55.85;97826.38;8415236;28;20231;-74
2022/11/14 17:14:02;;;;;;;0.00;0.00;;;;;;;13.05;55.45;97823.25;8414855;28;20280;-73
2022/11/14 17:18:06;;;;;;;0.10;0.10;;;;;;;13.05;55.47;97822.41;8414947;28;20227;-73
2022/11/14 17:22:09;;;;;;;0.10;0.10;;;;;;;12.94;55.43;97822.19;8414820;28;20233;-74
2022/11/14 17:26:14;;;;;;;0.10;0.10;;;;;;;12.97;55.38;97825.47;8414335;28;20243;-74
2022/11/14 17:30:19;;;;;;;0.00;0.00;;;;;;;12.83;55.97;97828.84;8414759;28;20557;-74
2022/11/14 17:34:22;;;;;;;0.10;0.10;;;;;;;12.76;56.55;97819.69;8414483;28;20230;-73
2022/11/14 17:38:24;;;;;;;0.10;0.10;;;;;;;12.70;56.42;97820.03;8413679;28;20401;-74
2022/11/14 17:42:28;;;;;;;0.10;0.10;;;;;;;12.79;56.02;97829.91;8414387;28;20230;-73
2022/11/14 17:46:31;;;;;;;0.00;0.00;;;;;;;12.61;56.49;97836.13;8414152;28;20561;-73
2022/11/14 17:50:38;;;;;;;0.10;0.10;;;;;;;12.58;56.55;97837.13;8414398;28;20264;-74
2022/11/14 17:54:41;;;;;;;0.10;0.10;;;;;;;12.32;57.43;97836.78;8414393;28;20542;-73
2022/11/14 17:58:46;;;;;;;0.10;0.10;;;;;;;12.36;57.39;97831.44;8414430;28;20238;-72
2022/11/14 18:02:49;;;;;;;0.10;0.10;;;;;;;12.42;57.31;97833.69;8414070;28;20241;-73
2022/11/14 18:06:52;;;;;;;0.10;0.10;;;;;;;12.63;56.54;97826.50;8413438;28;20234;-75
2022/11/14 18:11:00;;;;;;;0.10;0.10;;;;;;;12.70;56.22;97826.06;8414061;28;20242;-73
2022/11/14 18:15:05;;;;;;;0.10;0.10;;;;;;;12.62;56.72;97828.25;8413642;28;20241;-72
2022/11/14 18:19:08;;;;;;;0.10;0.10;;;;;;;12.65;56.74;97830.69;8413786;28;20288;-75
2022/11/14 18:23:11;;;;;;;0.10;0.10;;;;;;;12.58;56.42;97831.94;8413375;28;20230;-74
2022/11/14 18:27:14;;;;;;;0.00;0.00;;;;;;;12.77;55.81;97838.72;8413055;28;20416;-72
2022/11/14 18:31:18;;;;;;;0.10;0.10;;;;;;;12.67;56.13;97836.63;8413449;28;20230;-72
2022/11/14 18:35:21;;;;;;;0.10;0.10;;;;;;;12.68;56.19;97837.47;8413391;28;20233;-72
2022/11/14 18:39:25;;;;;;;0.10;0.10;;;;;;;12.74;55.51;97831.94;8413562;28;20235;-72
2022/11/14 18:43:30;;;;;;;0.00;0.00;;;;;;;12.71;55.70;97832.09;8413620;28;20223;-72
2022/11/14 18:47:36;;;;;;;0.10;0.10;;;;;;;12.66;55.68;97832.38;8413768;28;20241;-71
2022/11/14 18:51:40;;;;;;;0.10;0.10;;;;;;;12.60;55.92;97834.44;8419985;28;20237;-73
2022/11/14 18:55:43;;;;;;;0.00;0.00;;;;;;;12.44;56.17;97834.44;8419801;28;20242;-73
2022/11/14 18:59:46;;;;;;;0.10;0.10;;;;;;;12.43;56.43;97831.03;8419650;28;20233;-73
2022/11/14 19:03:50;;;;;;;0.10;0.10;;;;;;;11.89;58.30;97825.19;8419219;28;20542;-73
2022/11/14 19:07:53;;;;;;;0.10;0.10;;;;;;;12.32;56.57;97823.81;8418707;28;20260;-72
2022/11/14 19:16:16;;;;;;;0.10;0.10;;;;;;;12.47;56.05;97823.88;8418765;28;20227;-72
2022/11/14 19:20:20;;;;;;;0.00;0.00;;;;;;;12.50;55.96;97834.94;8419040;28;20238;-72
2022/11/14 19:24:23;;;;;;;0.10;0.10;;;;;;;12.47;56.14;97829.06;8419009;28;20245;-72
2022/11/14 19:28:28;;;;;;;0.10;0.10;;;;;;;12.42;56.09;97831.09;8418716;28;20231;-72
2022/11/14 19:32:32;;;;;;;0.10;0.10;;;;;;;12.38;56.09;97832.19;8418674;28;20235;-72
2022/11/14 19:36:37;;;;;;;0.10;0.10;;;;;;;12.42;55.74;97831.09;8418704;28;20249;-72